Time;durP1;ratioP1;P1;durP2;ratioP2;P2;SDS_P1;SDS_P2;PMS_P1;PMS_P2;Temp;Humidity;BMP_temperature;BMP_pressure;BME280_temperature;BME280_humidity;BME280_pressure;Samples;Min_cycle;Max_cycle;Signal;HPM_P1;HPM_P2
2022/08/09 00:01:04;;;;;;;;;;;;;;;22.57;54.02;102114.50;4998500;28;4080;-62
2022/08/09 00:03:36;;;;;;;;;;;;;;;22.57;53.72;102102.97;4997625;28;4281;-62
2022/08/09 00:06:22;;;;;;;;;;;;;;;22.57;53.99;102108.72;4997196;28;4251;-62
2022/08/09 00:08:49;;;;;;;;;;;;;;;22.57;53.77;102108.72;4999508;28;5379;-62
2022/08/09 00:11:17;;;;;;;;;;;;;;;22.58;54.08;102109.47;4996997;28;5404;-61
2022/08/09 00:13:50;;;;;;;;;;;;;;;22.58;53.97;102104.44;4999419;28;4187;-62
2022/08/09 00:16:17;;;;;;;;;;;;;;;22.56;53.89;102107.25;4996679;28;4213;-62
2022/08/09 00:19:01;;;;;;;;;;;;;;;22.57;54.02;102108.72;4996682;28;4210;-61
2022/08/09 00:21:34;;;;;;;;;;;;;;;22.57;54.01;102108.72;4996467;28;5493;-61
2022/08/09 00:24:01;;;;;;;;;;;;;;;22.57;53.97;102114.50;4996124;28;5269;-61
2022/08/09 00:26:27;;;;;;;;;;;;;;;22.58;53.84;102109.47;4997159;28;5308;-62
2022/08/09 00:28:58;;;;;;;;;;;;;;;22.61;53.47;102113.22;4996844;28;4238;-62
2022/08/09 00:31:25;;;;;;;;;;;;;;;22.61;53.95;102111.13;4995433;28;4206;-61
2022/08/09 00:34:11;;;;;;;;;;;;;;;22.59;54.14;102108.84;4997401;28;4238;-62
2022/08/09 00:36:38;;;;;;;;;;;;;;;22.59;53.95;102105.97;4998176;28;4212;-62
2022/08/09 00:39:07;;;;;;;;;;;;;;;22.59;53.94;102105.22;4996743;28;5506;-61
2022/08/09 00:41:53;;;;;;;;;;;;;;;22.58;54.14;102116.00;4996318;28;4124;-62
2022/08/09 00:44:40;;;;;;;;;;;;;;;22.58;54.24;102104.44;4999911;28;4220;-61
2022/08/09 00:47:07;;;;;;;;;;;;;;;22.58;54.37;102103.72;4996305;28;4171;-62
2022/08/09 00:49:40;;;;;;;;;;;;;;;22.59;54.33;102105.22;4988515;28;4170;-62
2022/08/09 00:52:09;;;;;;;;;;;;;;;22.58;54.52;102103.72;4997316;28;4201;-62
2022/08/09 00:54:43;;;;;;;;;;;;;;;22.58;54.59;102107.34;4997701;28;4503;-62
2022/08/09 00:57:10;;;;;;;;;;;;;;;22.57;54.58;102102.97;4999526;28;4016;-62
2022/08/09 00:59:38;;;;;;;;;;;;;;;22.58;54.30;102110.22;4998144;28;4098;-62
2022/08/09 01:02:13;;;;;;;;;;;;;;;22.58;54.15;102110.22;4997095;28;4178;-61
2022/08/09 01:04:50;;;;;;;;;;;;;;;22.59;54.08;102113.88;4998240;28;4135;-61
2022/08/09 01:07:21;;;;;;;;;;;;;;;22.58;54.07;102113.09;4995588;28;4416;-61
2022/08/09 01:10:12;;;;;;;;;;;;;;;22.59;53.97;102117.50;4995698;28;5456;-61
2022/08/09 01:12:44;;;;;;;;;;;;;;;22.59;54.22;102117.50;4995710;28;3976;-62
2022/08/09 01:15:15;;;;;;;;;;;;;;;22.58;54.36;102110.22;4995551;28;4123;-61
2022/08/09 01:17:50;;;;;;;;;;;;;;;22.57;54.61;102108.00;4995512;28;4249;-62
2022/08/09 01:20:41;;;;;;;;;;;;;;;22.57;54.49;102108.72;4992818;28;4162;-61
2022/08/09 01:23:19;;;;;;;;;;;;;;;22.57;54.47;102102.97;4995942;28;5398;-61
2022/08/09 01:26:06;;;;;;;;;;;;;;;22.59;54.35;102102.34;4997154;28;4037;-61
2022/08/09 01:28:32;;;;;;;;;;;;;;;22.58;54.26;102098.69;4991573;28;6365;-61
2022/08/09 01:30:59;;;;;;;;;;;;;;;22.61;54.41;102095.91;4991490;28;4209;-63
2022/08/09 01:33:26;;;;;;;;;;;;;;;22.59;54.35;102097.31;4989073;28;4216;-63
2022/08/09 01:35:55;;;;;;;;;;;;;;;22.59;54.61;102100.19;4998608;28;4155;-63
2022/08/09 01:38:24;;;;;;;;;;;;;;;22.59;54.47;102105.22;5001664;28;4223;-62
2022/08/09 01:40:55;;;;;;;;;;;;;;;22.59;54.56;102111.75;5001346;28;4239;-62
2022/08/09 01:43:31;;;;;;;;;;;;;;;22.58;54.55;102116.00;5000781;28;4378;-62
2022/08/09 01:46:18;;;;;;;;;;;;;;;22.58;54.77;102110.22;5005466;28;5323;-63
2022/08/09 01:48:52;;;;;;;;;;;;;;;22.57;54.94;102111.63;5001872;28;4078;-62
2022/08/09 01:51:18;;;;;;;;;;;;;;;22.58;54.82;102104.44;5001702;28;4231;-62
2022/08/09 01:53:48;;;;;;;;;;;;;;;22.56;54.73;102107.25;5006743;28;5331;-62
2022/08/09 01:56:19;;;;;;;;;;;;;;;22.57;54.70;102102.22;5000718;28;5261;-62
2022/08/09 01:58:45;;;;;;;;;;;;;;;22.58;54.74;102109.47;5002413;28;4251;-62
2022/08/09 02:01:15;;;;;;;;;;;;;;;22.57;54.74;102114.50;5001004;28;5232;-65
2022/08/09 02:03:44;;;;;;;;;;;;;;;22.57;54.67;102113.75;5005851;28;4301;-62
2022/08/09 02:06:10;;;;;;;;;;;;;;;22.57;54.58;102108.72;5001064;28;5235;-62
2022/08/09 02:08:37;;;;;;;;;;;;;;;22.56;54.66;102107.25;5000589;28;4157;-62
2022/08/09 02:11:24;;;;;;;;;;;;;;;22.57;54.93;102113.75;5001076;28;4224;-62
2022/08/09 02:14:07;;;;;;;;;;;;;;;22.56;54.60;102113.03;5002223;28;4149;-63
2022/08/09 02:16:35;;;;;;;;;;;;;;;22.56;54.72;102113.03;5006732;28;4298;-62
2022/08/09 02:19:22;;;;;;;;;;;;;;;22.56;54.70;102113.03;5001313;28;6410;-63
2022/08/09 02:21:50;;;;;;;;;;;;;;;22.56;54.43;102113.03;5001304;28;4278;-63
2022/08/09 02:24:22;;;;;;;;;;;;;;;22.57;54.70;102117.41;4999622;28;5250;-63
2022/08/09 02:26:52;;;;;;;;;;;;;;;22.57;54.56;102119.53;5005295;28;5378;-62
2022/08/09 02:29:23;;;;;;;;;;;;;;;22.56;54.57;102118.03;5000716;28;5226;-62
2022/08/09 02:31:49;;;;;;;;;;;;;;;22.56;54.68;102118.03;5001319;28;5376;-62
2022/08/09 02:34:17;;;;;;;;;;;;;;;22.54;54.52;102127.34;5000517;28;4165;-62
2022/08/09 02:37:04;;;;;;;;;;;;;;;22.55;54.43;102120.16;5000727;28;5492;-62
2022/08/09 02:39:36;;;;;;;;;;;;;;;22.56;54.56;102115.13;5005516;28;5496;-62
2022/08/09 02:42:09;;;;;;;;;;;;;;;22.56;54.58;102124.56;5001242;28;4175;-62
2022/08/09 02:44:37;;;;;;;;;;;;;;;22.56;54.17;102118.78;5000069;28;4200;-62
2022/08/09 02:47:04;;;;;;;;;;;;;;;22.55;54.35;102114.38;5000319;28;4160;-63
2022/08/09 02:49:35;;;;;;;;;;;;;;;22.55;54.56;102116.53;5000993;28;5561;-62
2022/08/09 02:52:07;;;;;;;;;;;;;;;22.55;54.63;102117.28;5000282;28;4223;-63
2022/08/09 02:54:33;;;;;;;;;;;;;;;22.55;54.50;102117.28;5000219;28;5248;-62
2022/08/09 02:57:01;;;;;;;;;;;;;;;22.55;54.15;102123.03;5000793;28;4117;-62
2022/08/09 02:59:47;;;;;;;;;;;;;;;22.55;54.40;102111.50;5000397;28;7531;-62
2022/08/09 03:02:33;;;;;;;;;;;;;;;22.56;54.36;102124.56;5000279;28;5526;-62
2022/08/09 03:05:00;;;;;;;;;;;;;;;22.54;54.42;102121.56;5000341;28;4245;-62
2022/08/09 03:07:30;;;;;;;;;;;;;;;22.55;54.13;102113.66;5004810;28;5341;-62
2022/08/09 03:09:58;;;;;;;;;;;;;;;22.55;54.37;102125.94;4999108;28;4216;-62
2022/08/09 03:12:25;;;;;;;;;;;;;;;22.55;54.08;102116.53;5000801;28;6257;-62
2022/08/09 03:14:52;;;;;;;;;;;;;;;22.55;54.22;102116.53;5000740;28;4216;-63
2022/08/09 03:17:18;;;;;;;;;;;;;;;22.55;54.45;102117.28;4999091;28;4182;-63
2022/08/09 03:19:52;;;;;;;;;;;;;;;22.55;54.28;102122.31;4999296;28;4125;-62
2022/08/09 03:22:29;;;;;;;;;;;;;;;22.54;54.20;102124.44;4998426;28;4547;-62
2022/08/09 03:24:59;;;;;;;;;;;;;;;22.53;54.13;102125.81;4998532;28;4557;-62
2022/08/09 03:27:47;;;;;;;;;;;;;;;22.55;54.34;102133.84;4999678;28;4159;-62
2022/08/09 03:30:14;;;;;;;;;;;;;;;22.54;54.17;102126.56;4999383;28;4199;-62
2022/08/09 03:33:00;;;;;;;;;;;;;;;22.54;54.37;102126.56;4999755;28;5367;-62
2022/08/09 03:35:36;;;;;;;;;;;;;;;22.54;54.17;102126.56;4998624;28;4139;-62
2022/08/09 03:38:22;;;;;;;;;;;;;;;22.54;54.37;102121.56;4998643;28;4254;-63
2022/08/09 03:40:56;;;;;;;;;;;;;;;22.53;54.24;102128.69;4999570;28;4481;-62
2022/08/09 03:43:23;;;;;;;;;;;;;;;22.55;54.00;102136.75;4999296;28;4220;-63
2022/08/09 03:45:50;;;;;;;;;;;;;;;22.54;54.30;102138.88;4997767;28;4333;-62
2022/08/09 03:48:36;;;;;;;;;;;;;;;22.54;54.15;102138.09;4998432;28;5241;-63
2022/08/09 03:51:16;;;;;;;;;;;;;;;22.53;54.42;102143.13;4999270;28;4385;-62
2022/08/09 03:54:02;;;;;;;;;;;;;;;22.54;54.43;102135.22;4999235;28;4194;-62
2022/08/09 03:56:30;;;;;;;;;;;;;;;22.52;54.02;102130.09;4997623;28;4206;-62
2022/08/09 03:58:56;;;;;;;;;;;;;;;22.54;54.13;102147.53;4998787;28;4235;-62
2022/08/09 04:01:22;;;;;;;;;;;;;;;22.53;54.09;102137.38;4998743;28;4163;-63
2022/08/09 04:03:51;;;;;;;;;;;;;;;22.54;54.32;102149.66;4999102;28;4198;-63
2022/08/09 04:06:26;;;;;;;;;;;;;;;22.53;54.40;102146.03;4996970;28;5379;-62
2022/08/09 04:08:53;;;;;;;;;;;;;;;22.53;54.45;102148.91;4998640;28;4144;-63
2022/08/09 04:11:19;;;;;;;;;;;;;;;22.53;54.18;102146.03;4998251;28;4154;-63
2022/08/09 04:13:50;;;;;;;;;;;;;;;22.53;54.16;102153.94;4998386;28;4225;-62
2022/08/09 04:16:36;;;;;;;;;;;;;;;22.52;54.07;102153.19;4998099;28;5440;-62
2022/08/09 04:19:04;;;;;;;;;;;;;;;22.53;54.02;102154.69;4998682;28;5302;-62
2022/08/09 04:21:36;;;;;;;;;;;;;;;22.53;54.08;102151.78;4998731;28;5315;-63
2022/08/09 04:24:05;;;;;;;;;;;;;;;22.53;54.35;102154.69;4998027;28;4187;-62
2022/08/09 04:26:32;;;;;;;;;;;;;;;22.52;54.23;102158.97;4999150;28;4835;-63
2022/08/09 04:29:03;;;;;;;;;;;;;;;22.53;54.20;102159.72;4998496;28;4176;-62
2022/08/09 04:31:39;;;;;;;;;;;;;;;22.52;54.27;102164.75;4998156;28;4127;-62
2022/08/09 04:34:12;;;;;;;;;;;;;;;22.53;54.22;102166.22;4999097;28;4297;-62
2022/08/09 04:36:44;;;;;;;;;;;;;;;22.53;54.02;102183.56;4997066;28;4481;-62
2022/08/09 04:39:15;;;;;;;;;;;;;;;22.51;54.26;102171.88;4997713;28;4222;-63
2022/08/09 04:41:42;;;;;;;;;;;;;;;22.53;54.42;102168.38;4998781;28;4239;-62
2022/08/09 04:44:11;;;;;;;;;;;;;;;22.53;54.26;102174.16;4996746;28;4141;-62
2022/08/09 04:46:40;;;;;;;;;;;;;;;22.52;54.06;102176.28;4995510;28;4150;-62
2022/08/09 04:49:23;;;;;;;;;;;;;;;22.52;54.26;102182.06;4997959;28;4195;-62
2022/08/09 04:52:09;;;;;;;;;;;;;;;22.52;54.26;102181.31;4998930;28;5297;-62
2022/08/09 04:54:36;;;;;;;;;;;;;;;22.53;54.15;102182.81;4998574;28;4133;-62
2022/08/09 04:57:02;;;;;;;;;;;;;;;22.52;54.17;102176.28;4997615;28;5290;-62
2022/08/09 04:59:29;;;;;;;;;;;;;;;22.52;54.36;102187.84;4997457;28;4162;-62
2022/08/09 05:01:56;;;;;;;;;;;;;;;22.52;54.06;102187.84;4998352;28;4315;-62
2022/08/09 05:04:22;;;;;;;;;;;;;;;22.52;54.15;102187.84;4997830;28;5216;-63
2022/08/09 05:06:56;;;;;;;;;;;;;;;22.52;54.16;102187.84;4998330;28;4065;-62
2022/08/09 05:09:23;;;;;;;;;;;;;;;22.52;54.14;102193.59;4999677;28;4283;-62
2022/08/09 05:11:50;;;;;;;;;;;;;;;22.51;53.99;102194.97;5000146;28;4215;-62
2022/08/09 05:14:17;;;;;;;;;;;;;;;22.52;54.15;102198.63;5001681;28;4220;-62
2022/08/09 05:16:43;;;;;;;;;;;;;;;22.52;54.12;102198.63;5001192;28;4236;-62
2022/08/09 05:19:26;;;;;;;;;;;;;;;22.51;54.24;102197.88;5000911;28;4220;-62
2022/08/09 05:22:12;;;;;;;;;;;;;;;22.52;54.26;102198.63;5002364;28;4469;-62
2022/08/09 05:24:59;;;;;;;;;;;;;;;22.51;53.99;102197.13;5002447;28;5440;-62
2022/08/09 05:27:27;;;;;;;;;;;;;;;22.52;54.24;102201.53;5002466;28;5209;-62
2022/08/09 05:29:56;;;;;;;;;;;;;;;22.51;54.03;102200.75;5001991;28;4200;-62
2022/08/09 05:32:22;;;;;;;;;;;;;;;22.51;54.21;102203.63;5001378;28;5298;-62
2022/08/09 05:34:49;;;;;;;;;;;;;;;22.51;54.11;102212.31;5002291;28;4235;-62
2022/08/09 05:37:16;;;;;;;;;;;;;;;22.51;54.23;102209.41;5001091;28;4209;-63
2022/08/09 05:39:42;;;;;;;;;;;;;;;22.52;54.22;102208.03;5002271;28;4153;-62
2022/08/09 05:42:13;;;;;;;;;;;;;;;22.52;54.06;102210.94;5002279;28;4311;-62
2022/08/09 05:44:50;;;;;;;;;;;;;;;22.51;54.14;102212.31;5000226;28;4023;-62
2022/08/09 05:47:18;;;;;;;;;;;;;;;22.50;54.33;102205.03;5001399;28;4304;-62
2022/08/09 05:49:46;;;;;;;;;;;;;;;22.52;54.03;102215.97;5001632;28;4247;-62
2022/08/09 05:52:33;;;;;;;;;;;;;;;22.52;53.93;102210.19;5000940;28;5275;-62
2022/08/09 05:54:59;;;;;;;;;;;;;;;22.52;54.29;102215.97;5001447;28;5289;-62
2022/08/09 05:57:35;;;;;;;;;;;;;;;22.52;54.40;102216.72;5000327;28;4213;-62
2022/08/09 06:00:22;;;;;;;;;;;;;;;22.51;54.46;102209.41;5000186;28;4224;-62
2022/08/09 06:02:48;;;;;;;;;;;;;;;22.52;54.33;102219.59;5001201;28;4173;-63
2022/08/09 06:05:21;;;;;;;;;;;;;;;22.51;53.93;102226.72;5000282;28;5401;-62
2022/08/09 06:08:08;;;;;;;;;;;;;;;22.52;53.89;102219.59;5000768;28;5341;-62
2022/08/09 06:10:36;;;;;;;;;;;;;;;22.51;54.17;102223.09;5000643;28;4122;-62
2022/08/09 06:13:03;;;;;;;;;;;;;;;22.51;54.35;102215.19;5001123;28;4088;-62
2022/08/09 06:15:44;;;;;;;;;;;;;;;22.51;54.10;102220.97;5000743;28;4264;-62
2022/08/09 06:18:12;;;;;;;;;;;;;;;22.51;54.30;102220.97;5000859;28;4179;-62
2022/08/09 06:20:41;;;;;;;;;;;;;;;22.51;53.91;102226.72;5000817;28;5113;-62
2022/08/09 06:23:08;;;;;;;;;;;;;;;22.51;54.00;102238.28;5000457;28;4286;-62
2022/08/09 06:25:40;;;;;;;;;;;;;;;22.50;54.06;102228.13;5001437;28;7041;-62
2022/08/09 06:28:08;;;;;;;;;;;;;;;22.50;54.07;102231.00;5001418;28;4156;-62
2022/08/09 06:30:34;;;;;;;;;;;;;;;22.50;54.12;102225.25;5000442;28;4186;-62
2022/08/09 06:33:01;;;;;;;;;;;;;;;22.49;54.02;102241.03;5001409;28;4205;-62
2022/08/09 06:35:48;;;;;;;;;;;;;;;22.48;54.30;102245.31;4999520;28;6372;-62
2022/08/09 06:38:23;;;;;;;;;;;;;;;22.48;54.08;102242.44;4999593;28;5259;-62
2022/08/09 06:41:02;;;;;;;;;;;;;;;22.49;54.18;102249.69;5000769;28;4193;-63
2022/08/09 06:43:29;;;;;;;;;;;;;;;22.49;54.14;102248.97;4998518;28;5160;-62
2022/08/09 06:45:59;;;;;;;;;;;;;;;22.48;53.95;102250.34;4999896;28;4200;-62
2022/08/09 06:48:33;;;;;;;;;;;;;;;22.49;54.13;102246.81;5000288;28;6504;-62
2022/08/09 06:51:00;;;;;;;;;;;;;;;22.48;53.83;102251.09;5000884;28;4294;-62
2022/08/09 06:53:30;;;;;;;;;;;;;;;22.48;53.94;102251.09;5000515;28;5688;-62
2022/08/09 06:56:03;;;;;;;;;;;;;;;22.48;53.73;102259.75;5000514;28;4139;-62
2022/08/09 06:58:31;;;;;;;;;;;;;;;22.48;53.85;102256.88;4999360;28;4170;-62
2022/08/09 07:01:17;;;;;;;;;;;;;;;22.50;53.59;102253.38;5000083;28;4196;-62
2022/08/09 07:03:49;;;;;;;;;;;;;;;22.48;53.53;102256.88;5000338;28;4282;-62
2022/08/09 07:06:19;;;;;;;;;;;;;;;22.48;53.70;102259.75;5000158;28;6279;-62
2022/08/09 07:08:45;;;;;;;;;;;;;;;22.49;53.49;102257.63;5000115;28;4134;-62
2022/08/09 07:11:15;;;;;;;;;;;;;;;22.48;53.46;102262.66;4999699;28;5200;-66
2022/08/09 07:13:50;;;;;;;;;;;;;;;22.49;53.06;102261.25;5000979;28;4188;-62
2022/08/09 07:16:31;;;;;;;;;;;;;;;22.50;53.04;102268.53;4999259;28;4204;-62
2022/08/09 07:19:11;;;;;;;;;;;;;;;22.50;53.30;102262.78;4998700;28;5240;-62
2022/08/09 07:21:44;;;;;;;;;;;;;;;22.50;53.14;102259.88;5000028;28;4223;-62
2022/08/09 07:24:23;;;;;;;;;;;;;;;22.51;53.30;102272.19;4999568;28;4168;-62
2022/08/09 07:27:05;;;;;;;;;;;;;;;22.52;53.35;102276.59;5000262;28;4228;-62
2022/08/09 07:29:51;;;;;;;;;;;;;;;22.52;53.30;102268.66;4999366;28;5003;-62
2022/08/09 07:32:22;;;;;;;;;;;;;;;22.52;53.39;102270.81;4998643;28;5398;-62
2022/08/09 07:34:57;;;;;;;;;;;;;;;22.52;53.29;102262.91;4999073;28;4233;-62
2022/08/09 07:37:24;;;;;;;;;;;;;;;22.53;53.40;102263.63;5000076;28;4235;-62
2022/08/09 07:39:52;;;;;;;;;;;;;;;22.52;53.19;102268.66;4999323;28;4153;-62
2022/08/09 07:42:22;;;;;;;;;;;;;;;22.52;53.28;102268.66;4999088;28;4254;-61
2022/08/09 07:44:58;;;;;;;;;;;;;;;22.52;53.43;102268.66;4999057;28;4227;-62
2022/08/09 07:47:31;;;;;;;;;;;;;;;22.53;53.12;102260.75;4998733;28;4218;-62
2022/08/09 07:50:21;;;;;;;;;;;;;;;22.53;53.46;102269.41;4999075;28;5242;-62
2022/08/09 07:53:00;;;;;;;;;;;;;;;22.53;53.10;102260.75;4999364;28;4230;-62
2022/08/09 07:55:29;;;;;;;;;;;;;;;22.52;53.38;102267.94;4998891;28;4150;-62
2022/08/09 07:58:16;;;;;;;;;;;;;;;22.52;53.55;102265.03;4998791;28;4173;-62
2022/08/09 08:00:43;;;;;;;;;;;;;;;22.53;53.29;102269.41;4999143;28;4266;-62
2022/08/09 08:03:29;;;;;;;;;;;;;;;22.53;53.34;102278.06;4998742;28;5409;-62
2022/08/09 08:05:56;;;;;;;;;;;;;;;22.52;52.98;102274.44;4999053;28;4075;-63
2022/08/09 08:08:23;;;;;;;;;;;;;;;22.53;53.23;102272.31;4998201;28;4186;-63
2022/08/09 08:11:10;;;;;;;;;;;;;;;22.51;53.06;102275.81;4998894;28;5275;-62
2022/08/09 08:13:56;;;;;;;;;;;;;;;22.53;53.06;102264.38;4998297;28;4139;-62
2022/08/09 08:16:23;;;;;;;;;;;;;;;22.52;52.94;102274.44;4998444;28;4220;-62
2022/08/09 08:18:56;;;;;;;;;;;;;;;22.53;53.01;102269.41;4998214;28;5249;-62
2022/08/09 08:21:23;;;;;;;;;;;;;;;22.53;52.91;102275.94;4997878;28;4272;-62
2022/08/09 08:23:51;;;;;;;;;;;;;;;22.51;53.00;102275.81;4999777;28;4167;-62
2022/08/09 08:26:21;;;;;;;;;;;;;;;22.52;53.27;102271.56;4998758;28;5308;-63
2022/08/09 08:29:06;;;;;;;;;;;;;;;22.52;52.97;102274.44;4998777;28;4235;-62
2022/08/09 08:31:33;;;;;;;;;;;;;;;22.52;53.27;102280.22;4998149;28;4353;-62
2022/08/09 08:34:20;;;;;;;;;;;;;;;22.52;53.16;102268.66;4998887;28;4223;-62
2022/08/09 08:36:50;;;;;;;;;;;;;;;22.53;53.23;102270.16;4997919;28;5255;-62
2022/08/09 08:39:17;;;;;;;;;;;;;;;22.52;53.00;102274.44;4998009;28;5490;-63
2022/08/09 08:41:47;;;;;;;;;;;;;;;22.53;52.99;102278.81;4998431;28;4231;-62
2022/08/09 08:44:18;;;;;;;;;;;;;;;22.53;53.14;102273.03;4997459;28;5354;-62
2022/08/09 08:46:53;;;;;;;;;;;;;;;22.53;53.11;102264.38;4997964;28;4066;-63
2022/08/09 08:49:30;;;;;;;;;;;;;;;22.53;53.03;102270.16;4998073;28;4241;-62
2022/08/09 08:52:11;;;;;;;;;;;;;;;22.53;53.04;102275.94;4999081;28;4087;-62
2022/08/09 08:54:58;;;;;;;;;;;;;;;22.54;52.95;102283.22;4997593;28;5414;-62
2022/08/09 08:57:29;;;;;;;;;;;;;;;22.55;52.87;102275.31;4998138;28;4233;-62
2022/08/09 09:00:00;;;;;;;;;;;;;;;22.54;52.64;102271.69;4998574;28;4156;-62
2022/08/09 09:02:27;;;;;;;;;;;;;;;22.53;52.78;102275.94;4999078;28;5456;-63
2022/08/09 09:04:57;;;;;;;;;;;;;;;22.53;52.54;102281.72;4998115;28;4124;-62
2022/08/09 09:07:31;;;;;;;;;;;;;;;22.54;52.78;102276.69;4997632;28;4198;-62
2022/08/09 09:10:02;;;;;;;;;;;;;;;22.53;52.68;102287.47;4999336;28;4167;-63
2022/08/09 09:12:34;;;;;;;;;;;;;;;22.54;52.58;102274.56;4998210;28;4207;-62
2022/08/09 09:15:01;;;;;;;;;;;;;;;22.53;52.47;102278.06;4998482;28;4267;-63
2022/08/09 09:17:30;;;;;;;;;;;;;;;22.54;52.43;102279.56;4998034;28;4142;-62
2022/08/09 09:20:17;;;;;;;;;;;;;;;22.52;52.46;102277.31;4997641;28;4264;-63
2022/08/09 09:22:50;;;;;;;;;;;;;;;22.54;52.29;102270.91;4998289;28;4236;-62
2022/08/09 09:25:29;;;;;;;;;;;;;;;22.55;52.73;102273.16;4997990;28;4163;-62
2022/08/09 09:28:15;;;;;;;;;;;;;;;22.54;52.75;102265.91;4997772;28;5323;-64
2022/08/09 09:31:02;;;;;;;;;;;;;;;22.54;52.13;102277.44;5002304;28;4288;-62
2022/08/09 09:33:32;;;;;;;;;;;;;;;22.54;52.56;102271.69;4997769;28;4151;-62
2022/08/09 09:36:11;;;;;;;;;;;;;;;22.55;52.38;102258.75;4998320;28;5561;-63
2022/08/09 09:38:49;;;;;;;;;;;;;;;22.54;52.57;102265.91;4998204;28;4171;-63
2022/08/09 09:41:22;;;;;;;;;;;;;;;22.55;52.39;102260.88;4997094;28;4112;-63
2022/08/09 09:43:48;;;;;;;;;;;;;;;22.55;52.31;102260.88;4998503;28;4256;-62
2022/08/09 09:46:35;;;;;;;;;;;;;;;22.54;52.28;102268.78;4997369;28;4137;-63
2022/08/09 09:49:11;;;;;;;;;;;;;;;22.55;52.41;102267.41;4997867;28;5249;-62
2022/08/09 09:51:39;;;;;;;;;;;;;;;22.55;52.27;102266.66;4997909;28;5217;-63
2022/08/09 09:54:06;;;;;;;;;;;;;;;22.55;52.11;102260.88;4998554;28;5499;-62
2022/08/09 09:56:46;;;;;;;;;;;;;;;22.55;52.07;102264.50;5000808;28;4199;-63
2022/08/09 09:59:34;;;;;;;;;;;;;;;22.55;52.53;102261.63;5000414;28;4255;-63
2022/08/09 10:02:01;;;;;;;;;;;;;;;22.55;51.99;102267.41;5001249;28;4179;-62
2022/08/09 10:04:28;;;;;;;;;;;;;;;22.55;52.06;102261.63;5001078;28;4169;-62
2022/08/09 10:06:56;;;;;;;;;;;;;;;22.56;51.98;102257.38;5002199;28;4239;-62
2022/08/09 10:09:24;;;;;;;;;;;;;;;22.56;52.07;102257.38;5000992;28;4247;-62
2022/08/09 10:11:59;;;;;;;;;;;;;;;22.55;52.26;102255.84;5001827;28;4121;-62
2022/08/09 10:14:40;;;;;;;;;;;;;;;22.56;52.06;102254.47;5001569;28;4065;-62
2022/08/09 10:17:13;;;;;;;;;;;;;;;22.57;51.98;102253.09;5005345;28;5204;-62
2022/08/09 10:20:00;;;;;;;;;;;;;;;22.55;51.41;102255.84;5001533;28;4094;-62
2022/08/09 10:22:31;;;;;;;;;;;;;;;22.56;51.64;102247.94;4999958;28;5214;-62
2022/08/09 10:24:59;;;;;;;;;;;;;;;22.56;51.45;102245.81;5000630;28;5328;-62
2022/08/09 10:27:36;;;;;;;;;;;;;;;22.56;51.65;102242.94;4999430;28;5255;-62
2022/08/09 10:30:11;;;;;;;;;;;;;;;22.56;51.85;102242.94;5001356;28;4206;-62
2022/08/09 10:32:57;;;;;;;;;;;;;;;22.57;51.72;102243.69;5000748;28;4403;-62
2022/08/09 10:35:24;;;;;;;;;;;;;;;22.56;51.55;102242.94;5001204;28;4221;-62
2022/08/09 10:37:51;;;;;;;;;;;;;;;22.57;51.59;102246.56;5005695;28;4376;-62
2022/08/09 10:40:18;;;;;;;;;;;;;;;22.57;51.52;102247.31;5000227;28;5328;-62
2022/08/09 10:43:00;;;;;;;;;;;;;;;22.58;51.41;102242.28;5000226;28;6334;-62
2022/08/09 10:45:28;;;;;;;;;;;;;;;22.57;51.13;102235.75;4999469;28;5247;-62
2022/08/09 10:47:59;;;;;;;;;;;;;;;22.56;51.45;102237.16;5000343;28;4278;-62
2022/08/09 10:53:38;;;;;;;;;;;;;;;22.57;51.32;102235.00;4999353;28;5341;-62
2022/08/09 10:56:22;;;;;;;;;;;;;;;22.57;50.87;102227.09;5004591;28;4199;-62
2022/08/09 10:58:49;;;;;;;;;;;;;;;22.58;51.10;102233.63;4999824;28;4151;-62
2022/08/09 11:01:31;;;;;;;;;;;;;;;22.58;50.94;102234.38;4999826;28;4183;-62
2022/08/09 11:04:19;;;;;;;;;;;;;;;22.59;51.34;102229.38;4999896;28;5235;-63
2022/08/09 11:06:57;;;;;;;;;;;;;;;22.58;50.91;102219.94;5000376;28;4143;-62
2022/08/09 11:09:37;;;;;;;;;;;;;;;22.58;51.03;102222.81;5000110;28;5465;-62
2022/08/09 11:12:10;;;;;;;;;;;;;;;22.58;51.09;102225.69;5000079;28;4200;-62
2022/08/09 11:14:55;;;;;;;;;;;;;;;22.59;50.88;102227.22;4999645;28;4307;-62
2022/08/09 11:17:23;;;;;;;;;;;;;;;22.58;51.00;102217.03;4999212;28;5221;-63
2022/08/09 11:19:57;;;;;;;;;;;;;;;22.59;50.94;102223.59;4999357;28;5319;-63
2022/08/09 11:22:43;;;;;;;;;;;;;;;22.59;51.18;102221.44;4999863;28;5101;-62
2022/08/09 11:25:11;;;;;;;;;;;;;;;22.59;51.06;102221.44;5000085;28;4196;-62
2022/08/09 11:27:40;;;;;;;;;;;;;;;22.59;50.85;102221.44;4999467;28;5233;-63
2022/08/09 11:30:26;;;;;;;;;;;;;;;22.60;50.98;102227.97;5000290;28;4202;-62
2022/08/09 11:33:03;;;;;;;;;;;;;;;22.61;50.96;102228.72;5000463;28;4112;-62
2022/08/09 11:35:35;;;;;;;;;;;;;;;22.59;50.93;102227.22;4998891;28;4328;-62
2022/08/09 11:38:30;;;;;;;;;;;;;;;22.59;51.14;102226.47;4997149;28;4071;-63
2022/08/09 11:41:02;;;;;;;;;;;;;;;22.58;50.81;102219.94;4999362;28;5251;-62
2022/08/09 11:43:30;;;;;;;;;;;;;;;22.56;50.95;102222.72;4998381;28;4200;-62
2022/08/09 11:46:00;;;;;;;;;;;;;;;22.65;50.59;102228.97;5000003;28;4288;-62
2022/08/09 11:48:31;;;;;;;;;;;;;;;22.60;50.67;102233.75;4999384;28;4339;-62
2022/08/09 11:51:03;;;;;;;;;;;;;;;22.58;51.19;102225.69;5000662;28;4283;-62
2022/08/09 11:54:08;;;;;;;;;;;;;;;22.58;50.90;102231.47;4999155;28;4169;-62
2022/08/09 11:56:39;;;;;;;;;;;;;;;22.59;50.86;102227.22;4998119;28;4129;-62
2022/08/09 11:59:23;;;;;;;;;;;;;;;22.59;51.09;102224.34;4999720;28;4264;-62
2022/08/09 12:01:59;;;;;;;;;;;;;;;22.59;50.99;102221.44;5000117;28;4167;-62
2022/08/09 12:04:43;;;;;;;;;;;;;;;22.61;50.89;102223.72;4996373;28;4244;-63
2022/08/09 12:07:10;;;;;;;;;;;;;;;22.62;50.85;102233.13;4998465;28;4245;-62
2022/08/09 12:09:42;;;;;;;;;;;;;;;22.62;50.89;102218.69;4998529;28;4226;-62
2022/08/09 12:12:17;;;;;;;;;;;;;;;22.63;50.80;102214.41;4997821;28;6386;-63
2022/08/09 12:14:54;;;;;;;;;;;;;;;22.63;51.00;102208.63;4998746;28;5448;-61
2022/08/09 12:17:34;;;;;;;;;;;;;;;22.62;51.12;102207.88;4998222;28;4222;-61
2022/08/09 12:20:12;;;;;;;;;;;;;;;22.64;51.13;102222.44;4997431;28;4248;-61
2022/08/09 12:22:47;;;;;;;;;;;;;;;22.63;51.10;102209.41;4997462;28;4047;-61
2022/08/09 12:25:16;;;;;;;;;;;;;;;22.64;51.22;102210.88;4999086;28;4230;-63
2022/08/09 12:27:42;;;;;;;;;;;;;;;22.65;51.20;102208.75;4998587;28;4241;-60
2022/08/09 12:30:29;;;;;;;;;;;;;;;22.64;51.16;102216.66;4999100;28;4168;-61
2022/08/09 12:33:03;;;;;;;;;;;;;;;22.65;51.30;102214.53;4995853;28;6299;-61
2022/08/09 12:35:30;;;;;;;;;;;;;;;22.64;51.46;102207.25;4995512;28;4210;-61
2022/08/09 12:38:20;;;;;;;;;;;;;;;22.64;51.56;102199.34;4996356;28;5453;-61
2022/08/09 12:41:03;;;;;;;;;;;;;;;22.65;51.47;102205.84;4997800;28;4217;-61
2022/08/09 12:43:32;;;;;;;;;;;;;;;22.65;51.64;102197.19;4998374;28;4141;-61
2022/08/09 12:46:18;;;;;;;;;;;;;;;22.65;51.55;102197.19;4997492;28;4309;-61
2022/08/09 12:48:45;;;;;;;;;;;;;;;22.65;51.35;102188.53;4997690;28;4140;-61
2022/08/09 12:51:11;;;;;;;;;;;;;;;22.66;51.76;102192.94;4998061;28;4249;-61
2022/08/09 12:53:56;;;;;;;;;;;;;;;22.65;51.68;102192.16;4996419;28;5476;-61
2022/08/09 12:56:22;;;;;;;;;;;;;;;22.65;51.52;102183.50;4997613;28;5295;-61
2022/08/09 12:59:12;;;;;;;;;;;;;;;22.66;51.56;102190.06;4997181;28;4263;-61
2022/08/09 13:01:40;;;;;;;;;;;;;;;22.66;51.51;102184.28;4996775;28;5164;-61
2022/08/09 13:04:16;;;;;;;;;;;;;;;22.67;51.66;102191.53;4998631;28;4224;-61
2022/08/09 13:07:12;;;;;;;;;;;;;;;22.66;51.87;102184.28;4998785;28;4177;-61
2022/08/09 13:09:39;;;;;;;;;;;;;;;22.67;51.65;102174.22;4993869;28;4193;-61
2022/08/09 13:12:18;;;;;;;;;;;;;;;22.66;51.58;102181.38;4998346;28;5210;-61
2022/08/09 13:14:49;;;;;;;;;;;;;;;22.67;51.67;102182.88;4998673;28;4231;-62
2022/08/09 13:17:20;;;;;;;;;;;;;;;22.68;51.77;102175.75;4997381;28;4369;-62
2022/08/09 13:20:07;;;;;;;;;;;;;;;22.68;51.49;102175.75;4995966;28;4246;-61
2022/08/09 13:22:50;;;;;;;;;;;;;;;22.67;51.66;102180.00;4997813;28;4246;-61
2022/08/09 13:25:37;;;;;;;;;;;;;;;22.68;51.90;102181.50;4997120;28;4332;-60